• Join FlightAware (Why Join?)
  • Login
  • US Flag 
02:51AM EST


 

Airport Tracker/Info


-or-


 

Live Flight TrackerFlight Track Log ✈ LOF3416 ✈ 13-Jul-2013 ✈ KORD - KSGF

Flight Track Log - Related Links

Times and Time Zones

All times are in EDT time to prevent confusion due to time zone crossing. See the LOF3416 flight status page for this flight to view local times or setup timezone preferences in your user account.

Time Position Orientation Groundspeed Altitude Reporting Facility
EDT Latitude Longitude Course Direction KTS MPH feet Rate Location/Type
09:18PM 41.8314 -87.9618 194° South  Level FlightAware Approximate
09:25PM 41.1210 -88.2951 199° South  Level FlightAware Approximate
09:26PM 41.0188 -88.3415 199° South  Level FlightAware Approximate
09:27PM 40.9166 -88.3880 199° South  Level FlightAware Approximate
09:28PM 40.8144 -88.4343 198° South  Level FlightAware Approximate
09:29PM 40.7116 -88.4784 198° South  Level FlightAware Approximate
09:30PM 40.6104 -88.5282 201° Southwest  Level FlightAware Approximate
09:31PM 40.5078 -88.5729 198° South  Level FlightAware Approximate
09:32PM 40.4051 -88.6169 198° South  Level FlightAware Approximate
09:33PM 40.3084 -88.6772 224° Southwest  Level FlightAware Approximate
09:34PM 40.2308 -88.7757 224° Southwest  Level FlightAware Approximate
09:35PM 40.1530 -88.8740 224° Southwest  Level FlightAware Approximate
09:36PM 40.0753 -88.9721 224° Southwest  Level FlightAware Approximate
09:37PM 39.9974 -89.0699 223° Southwest  Level FlightAware Approximate
09:38PM 39.9189 -89.1668 223° Southwest  Level FlightAware Approximate
09:39PM 39.8404 -89.2635 223° Southwest  Level FlightAware Approximate
09:40PM 39.7617 -89.3599 223° Southwest  Level FlightAware Approximate
09:41PM 39.6830 -89.4562 223° Southwest  Level FlightAware Approximate
09:42PM 39.6042 -89.5522 223° Southwest  Level FlightAware Approximate
09:43PM 39.5254 -89.6480 223° Southwest  Level FlightAware Approximate
09:44PM 39.4464 -89.7436 223° Southwest  Level FlightAware Approximate
09:45PM 39.3674 -89.8389 223° Southwest  Level FlightAware Approximate
09:46PM 39.2883 -89.9341 223° Southwest  Level FlightAware Approximate
09:47PM 39.2094 -90.0294 224° Southwest  Level FlightAware Approximate
09:48PM 39.1310 -90.1253 224° Southwest  Level FlightAware Approximate
09:49PM 39.0525 -90.2210 223° Southwest  Level FlightAware Approximate
09:50PM 38.9740 -90.3165 223° Southwest  Level FlightAware Approximate
09:51PM 38.8954 -90.4118 223° Southwest  Level FlightAware Approximate
09:52PM 38.8255 -90.5162 238° Southwest  Level FlightAware Approximate
09:53PM 38.7674 -90.6332 238° Southwest  Level FlightAware Approximate
09:54PM 38.7092 -90.7499 237° Southwest  Level FlightAware Approximate
09:55PM 38.6509 -90.8664 237° Southwest  Level FlightAware Approximate
09:56PM 38.5925 -90.9828 237° Southwest  Level FlightAware Approximate
09:57PM 38.5340 -91.0990 237° Southwest  Level FlightAware Approximate
09:58PM 38.4759 -91.2153 238° Southwest  Level FlightAware Approximate
09:59PM 38.4178 -91.3317 238° Southwest  Level FlightAware Approximate
10:00PM 38.3597 -91.4479 237° Southwest  Level FlightAware Approximate
10:01PM 38.3014 -91.5639 237° Southwest  Level FlightAware Approximate
10:02PM 38.2343 -91.6718 232° Southwest  Level FlightAware Approximate
10:03PM 38.1785 -91.7890 241° Southwest  Level FlightAware Approximate
10:04PM 38.1220 -91.9060 238° Southwest  Level FlightAware Approximate
10:05PM 38.0591 -92.0176 234° Southwest  Level FlightAware Approximate
10:06PM 37.9956 -92.1286 234° Southwest  Level FlightAware Approximate
10:07PM 37.9346 -92.2417 236° Southwest  Level FlightAware Approximate
10:08PM 37.8740 -92.3551 236° Southwest  Level FlightAware Approximate
10:09PM 37.8152 -92.4698 238° Southwest  Level FlightAware Approximate
10:10PM 37.7574 -92.5854 238° Southwest  Level FlightAware Approximate
10:11PM 37.6924 -92.6834 240° Southwest  Level FlightAware Approximate
10:12PM 37.6386 -92.8018 240° Southwest  Level FlightAware Approximate
10:13PM 37.5774 -92.9139 232° Southwest  Level FlightAware Approximate
10:14PM 37.5112 -93.0215 232° Southwest  Level FlightAware Approximate
10:15PM 37.4514 -93.1345 241° Southwest  Level FlightAware Approximate
10:16PM 37.3981 -93.2529 230° Southwest  Level FlightAware Approximate
10:17PM 37.3235 -93.3439 198° South  Level FlightAware Approximate
10:18PM 37.2457 -93.3886 202° Southwest  Level Estimated
10:19PM 37.2457 -93.3886 202° Southwest  Level Estimated
10:20PM 37.2457 -93.3886 202° Southwest  Level Estimated
10:21PM 37.2457 -93.3886 202° Southwest  Level Estimated
10:22PM 37.2457 -93.3886 202° Southwest  Level Estimated
10:23PM 37.2457 -93.3886 202° Southwest  Level Estimated
10:24PM 37.2457 -93.3886 202° Southwest  Level Estimated